createdAt,value
2022-08-25T00:01:25.669Z,19.40
2022-08-25T00:03:56.029Z,19.40
2022-08-25T00:06:24.086Z,19.40
2022-08-25T00:08:51.514Z,19.30
2022-08-25T00:11:21.834Z,19.40
2022-08-25T00:13:53.198Z,19.30
2022-08-25T00:16:21.586Z,19.30
2022-08-25T00:18:51.639Z,19.30
2022-08-25T00:21:19.961Z,19.30
2022-08-25T00:23:47.323Z,19.30
2022-08-25T00:26:15.764Z,19.20
2022-08-25T00:28:43.555Z,19.20
2022-08-25T00:31:16.142Z,19.20
2022-08-25T00:33:44.587Z,19.10
2022-08-25T00:36:12.493Z,19.10
2022-08-25T00:38:40.556Z,19.10
2022-08-25T00:41:08.198Z,19.10
2022-08-25T00:43:42.443Z,19.10
2022-08-25T00:46:10.174Z,19.00
2022-08-25T00:48:37.936Z,19.10
2022-08-25T00:51:05.411Z,19.10
2022-08-25T00:53:32.925Z,19.00
2022-08-25T00:56:00.265Z,19.00
2022-08-25T00:58:28.535Z,19.00
2022-08-25T01:00:57.588Z,18.90
2022-08-25T01:03:32.929Z,18.90
2022-08-25T01:06:01.711Z,18.90
2022-08-25T01:08:29.345Z,18.90
2022-08-25T01:11:02.127Z,18.90
2022-08-25T01:13:32.116Z,18.90
2022-08-25T01:15:59.550Z,18.80
2022-08-25T01:18:27.351Z,18.80
2022-08-25T01:20:55.914Z,18.80
2022-08-25T01:23:23.487Z,18.80
2022-08-25T01:26:30.143Z,18.80
2022-08-25T01:29:17.850Z,18.80
2022-08-25T01:31:45.391Z,18.80
2022-08-25T01:34:12.943Z,18.70
2022-08-25T01:36:41.168Z,18.70
2022-08-25T01:39:08.626Z,18.70
2022-08-25T01:41:59.766Z,18.70
2022-08-25T01:44:27.170Z,18.70
2022-08-25T01:46:54.674Z,18.60
2022-08-25T01:49:22.127Z,18.60
2022-08-25T01:52:02.314Z,18.60
2022-08-25T01:54:29.694Z,18.60
2022-08-25T01:56:58.333Z,18.50
2022-08-25T01:59:25.683Z,18.50
2022-08-25T02:01:59.910Z,18.50
2022-08-25T02:04:29.534Z,18.50
2022-08-25T02:06:56.859Z,18.50
2022-08-25T02:09:24.754Z,18.50
2022-08-25T02:11:52.133Z,18.40
2022-08-25T02:14:20.044Z,18.40
2022-08-25T02:16:49.556Z,18.40
2022-08-25T02:19:17.204Z,18.40
2022-08-25T02:21:44.660Z,18.40
2022-08-25T02:24:12.148Z,18.40
2022-08-25T02:26:39.576Z,18.40
2022-08-25T02:29:07.411Z,18.40
2022-08-25T02:31:35.712Z,18.30
2022-08-25T02:34:03.529Z,18.30
2022-08-25T02:36:32.160Z,18.30
2022-08-25T02:38:59.712Z,18.30
2022-08-25T02:41:31.194Z,18.30
2022-08-25T02:44:02.598Z,18.30
2022-08-25T02:46:30.958Z,18.20
2022-08-25T02:48:58.533Z,18.20
2022-08-25T02:51:26.161Z,18.20
2022-08-25T02:53:53.492Z,18.20
2022-08-25T02:56:21.039Z,18.20
2022-08-25T02:58:48.378Z,18.20
2022-08-25T03:01:16.175Z,18.20
2022-08-25T03:03:44.788Z,18.20
2022-08-25T03:06:13.305Z,18.20
2022-08-25T03:08:40.700Z,18.10
2022-08-25T03:11:08.031Z,18.10
2022-08-25T03:13:35.391Z,18.10
2022-08-25T03:16:03.256Z,18.10
2022-08-25T03:18:30.771Z,18.10
2022-08-25T03:20:58.466Z,18.10
2022-08-25T03:23:25.931Z,18.00
2022-08-25T03:26:15.131Z,18.00
2022-08-25T03:28:42.551Z,18.00
2022-08-25T03:31:10.079Z,18.00
2022-08-25T03:33:38.433Z,18.00
2022-08-25T03:36:06.837Z,17.90
2022-08-25T03:38:34.343Z,17.90
2022-08-25T03:41:02.128Z,17.90
2022-08-25T03:43:29.463Z,17.90
2022-08-25T03:45:57.364Z,17.90
2022-08-25T03:48:25.067Z,17.90
2022-08-25T03:50:54.727Z,17.90
2022-08-25T03:53:22.578Z,17.80
2022-08-25T03:55:49.985Z,17.90
2022-08-25T03:58:18.157Z,17.90
2022-08-25T04:00:45.572Z,17.90
2022-08-25T04:03:12.922Z,17.80
2022-08-25T04:05:40.305Z,17.90
2022-08-25T04:08:08.018Z,17.90
2022-08-25T04:10:37.006Z,17.80
2022-08-25T04:13:06.144Z,17.90
2022-08-25T04:15:33.487Z,17.90
2022-08-25T04:18:00.870Z,17.80
2022-08-25T04:20:28.261Z,17.80
2022-08-25T04:22:55.912Z,17.80
2022-08-25T04:25:23.222Z,17.80
2022-08-25T04:27:50.814Z,17.80
2022-08-25T04:30:18.517Z,17.80
2022-08-25T04:32:45.868Z,17.80
2022-08-25T04:35:13.222Z,17.70
2022-08-25T04:37:40.741Z,17.70
2022-08-25T04:40:09.509Z,17.70
2022-08-25T04:42:37.019Z,17.70
2022-08-25T04:45:05.733Z,17.70
2022-08-25T04:47:38.221Z,17.70
2022-08-25T04:50:06.900Z,17.70
2022-08-25T04:52:34.286Z,17.70
2022-08-25T04:55:01.669Z,17.70
2022-08-25T04:57:29.374Z,17.70
2022-08-25T04:59:56.805Z,17.70
2022-08-25T05:02:25.280Z,17.70
2022-08-25T05:04:52.800Z,17.70
2022-08-25T05:07:20.225Z,17.70
2022-08-25T05:09:47.599Z,17.70
2022-08-25T05:12:14.940Z,17.80
2022-08-25T05:14:42.525Z,17.80
2022-08-25T05:17:09.999Z,17.80
2022-08-25T05:19:37.367Z,17.80
2022-08-25T05:22:04.857Z,17.80
2022-08-25T05:24:32.247Z,17.80
2022-08-25T05:26:59.884Z,17.90
2022-08-25T05:29:27.400Z,17.90
2022-08-25T05:31:54.803Z,18.00
2022-08-25T05:34:22.285Z,18.00
2022-08-25T05:36:49.724Z,18.00
2022-08-25T05:39:17.076Z,18.00
2022-08-25T05:41:44.439Z,18.00
2022-08-25T05:44:12.778Z,18.00
2022-08-25T05:46:40.227Z,18.00
2022-08-25T05:49:07.626Z,18.10
2022-08-25T05:51:34.974Z,18.10
2022-08-25T05:54:03.514Z,18.20
2022-08-25T05:56:31.351Z,18.20
2022-08-25T05:58:58.703Z,18.20
2022-08-25T06:01:46.031Z,18.30
2022-08-25T06:04:15.368Z,18.30
2022-08-25T06:06:42.739Z,18.40
2022-08-25T06:09:10.266Z,18.40
2022-08-25T06:11:39.696Z,18.40
2022-08-25T06:14:09.547Z,18.50
2022-08-25T06:16:38.942Z,18.50
2022-08-25T06:19:07.545Z,18.50
2022-08-25T06:21:35.108Z,18.60
2022-08-25T06:24:02.545Z,18.60
2022-08-25T06:26:29.933Z,18.70
2022-08-25T06:28:57.315Z,18.70
2022-08-25T06:31:24.843Z,18.70
2022-08-25T06:33:52.901Z,18.80
2022-08-25T06:36:20.448Z,18.80
2022-08-25T06:38:50.433Z,18.90
2022-08-25T06:41:17.850Z,18.90
2022-08-25T06:43:49.831Z,19.00
2022-08-25T06:46:21.565Z,19.10
2022-08-25T06:48:49.469Z,19.20
2022-08-25T06:51:18.410Z,19.20
2022-08-25T06:53:47.718Z,19.30
2022-08-25T06:56:19.067Z,19.40
2022-08-25T06:58:47.323Z,19.50
2022-08-25T07:01:25.738Z,19.60
2022-08-25T07:03:58.013Z,19.60
2022-08-25T07:06:26.588Z,19.70
2022-08-25T07:08:54.051Z,19.80
2022-08-25T07:11:21.578Z,19.80
2022-08-25T07:13:49.231Z,19.90
2022-08-25T07:16:17.571Z,20.00
2022-08-25T07:18:45.411Z,20.00
2022-08-25T07:21:13.678Z,20.10
2022-08-25T07:23:41.458Z,20.20
2022-08-25T07:26:36.189Z,20.20
2022-08-25T07:29:02.238Z,20.30
2022-08-25T07:31:30.524Z,20.40
2022-08-25T07:34:16.798Z,20.50
2022-08-25T07:36:44.537Z,20.60
2022-08-25T07:39:12.114Z,20.70
2022-08-25T07:41:40.780Z,20.80
2022-08-25T07:44:09.373Z,20.90
2022-08-25T07:46:36.781Z,20.90
2022-08-25T07:49:05.393Z,21.00
2022-08-25T07:52:04.322Z,21.00
2022-08-25T07:54:34.273Z,21.10
2022-08-25T07:57:03.684Z,21.10
2022-08-25T07:59:39.683Z,21.20
2022-08-25T08:02:18.315Z,21.30
2022-08-25T08:04:52.208Z,21.30
2022-08-25T08:07:20.863Z,21.30
2022-08-25T08:10:05.286Z,21.40
2022-08-25T08:12:38.264Z,21.50
2022-08-25T08:15:10.417Z,21.50
2022-08-25T08:17:38.867Z,21.60
2022-08-25T08:20:09.032Z,21.60
2022-08-25T08:22:37.687Z,21.70
2022-08-25T08:25:07.121Z,21.70
2022-08-25T08:27:38.076Z,21.80
2022-08-25T08:30:06.295Z,21.80
2022-08-25T08:33:05.981Z,21.90
2022-08-25T08:35:21.342Z,22.00
2022-08-25T08:37:49.149Z,22.00
2022-08-25T08:40:21.524Z,22.10
2022-08-25T08:42:59.227Z,22.10
2022-08-25T08:45:40.617Z,22.20
2022-08-25T08:48:16.272Z,22.30
2022-08-25T08:50:53.107Z,22.40
2022-08-25T08:53:23.571Z,22.50
2022-08-25T08:55:57.371Z,22.60
2022-08-25T08:58:44.628Z,22.70
2022-08-25T09:01:14.149Z,22.70
2022-08-25T09:03:57.155Z,22.80
2022-08-25T09:06:34.134Z,22.70
2022-08-25T09:09:03.028Z,22.70
2022-08-25T09:11:55.366Z,22.80
2022-08-25T09:14:47.699Z,22.90
2022-08-25T09:17:43.012Z,22.90
2022-08-25T09:20:37.026Z,23.00
2022-08-25T09:23:20.262Z,23.10
2022-08-25T09:26:25.461Z,23.10
2022-08-25T09:29:16.344Z,23.20
2022-08-25T09:31:44.483Z,23.20
2022-08-25T09:34:22.884Z,23.20
2022-08-25T09:36:52.900Z,23.30
2022-08-25T09:39:21.044Z,23.40
2022-08-25T09:41:59.152Z,23.50
2022-08-25T09:44:47.656Z,23.50
2022-08-25T09:47:18.162Z,23.50
2022-08-25T09:49:47.750Z,23.50
2022-08-25T09:52:36.298Z,23.50
2022-08-25T09:55:06.558Z,23.70
2022-08-25T09:57:52.865Z,23.70
2022-08-25T10:00:30.701Z,23.90
2022-08-25T10:03:05.753Z,23.90
2022-08-25T10:05:36.540Z,24.00
2022-08-25T10:08:10.685Z,24.00
2022-08-25T10:10:46.176Z,24.00
2022-08-25T10:13:15.771Z,24.10
2022-08-25T10:16:04.537Z,24.20
2022-08-25T10:19:05.221Z,24.40
2022-08-25T10:21:32.936Z,24.50
2022-08-25T10:24:02.234Z,24.60
2022-08-25T10:26:37.866Z,24.70
2022-08-25T10:29:36.267Z,24.80
2022-08-25T10:32:21.506Z,24.90
2022-08-25T10:34:52.582Z,25.10
2022-08-25T10:37:26.472Z,25.10
2022-08-25T10:40:10.968Z,25.20
2022-08-25T10:43:07.197Z,25.20
2022-08-25T10:45:51.030Z,25.30
2022-08-25T10:48:22.765Z,25.30
2022-08-25T10:50:52.889Z,25.30
2022-08-25T10:53:35.807Z,25.40
2022-08-25T10:56:18.072Z,25.50
2022-08-25T10:59:13.417Z,25.60
2022-08-25T11:01:44.161Z,25.70
2022-08-25T11:04:13.689Z,25.70
2022-08-25T11:06:54.665Z,25.70
2022-08-25T11:09:25.593Z,25.70
2022-08-25T11:12:00.102Z,25.70
2022-08-25T11:14:38.938Z,25.60
2022-08-25T11:17:41.921Z,25.60
2022-08-25T11:20:16.329Z,25.70
2022-08-25T11:23:05.267Z,25.80
2022-08-25T11:25:38.604Z,26.00
2022-08-25T11:28:20.661Z,26.10
2022-08-25T11:30:50.906Z,26.30
2022-08-25T11:33:19.559Z,26.30
2022-08-25T11:35:51.655Z,26.30
2022-08-25T11:38:40.855Z,26.30
2022-08-25T11:41:16.485Z,26.40
2022-08-25T11:43:43.885Z,26.50
2022-08-25T11:46:28.334Z,26.60
2022-08-25T11:49:21.681Z,26.60
2022-08-25T11:51:49.887Z,26.60
2022-08-25T11:54:21.646Z,26.70
2022-08-25T11:57:16.134Z,26.80
2022-08-25T11:59:49.745Z,26.90
2022-08-25T12:02:36.523Z,26.90
2022-08-25T12:05:28.357Z,27.00
2022-08-25T12:08:21.545Z,27.00
2022-08-25T12:11:07.289Z,27.10
2022-08-25T12:13:43.956Z,27.00
2022-08-25T12:16:42.062Z,27.00
2022-08-25T12:19:36.060Z,27.00
2022-08-25T12:22:04.043Z,27.00
2022-08-25T12:25:21.400Z,27.00
2022-08-25T12:28:06.846Z,27.00
2022-08-25T12:30:45.693Z,26.90
2022-08-25T12:34:14.813Z,26.90
2022-08-25T12:36:49.556Z,26.90
2022-08-25T12:39:24.292Z,27.00
2022-08-25T12:42:03.350Z,27.00
2022-08-25T12:44:35.957Z,27.10
2022-08-25T12:47:28.285Z,27.20
2022-08-25T12:50:53.995Z,27.20
2022-08-25T12:53:43.746Z,27.20
2022-08-25T12:56:24.867Z,27.10
2022-08-25T12:59:15.642Z,27.20
2022-08-25T13:01:49.206Z,27.20
2022-08-25T13:04:32.960Z,27.20
2022-08-25T13:07:15.528Z,27.20
2022-08-25T13:10:01.917Z,27.30
2022-08-25T13:12:42.319Z,27.20
2022-08-25T13:15:13.908Z,27.20
2022-08-25T13:17:41.637Z,27.20
2022-08-25T13:20:19.061Z,27.20
2022-08-25T13:22:47.959Z,27.30
2022-08-25T13:25:32.906Z,27.30
2022-08-25T13:28:03.289Z,27.30
2022-08-25T13:30:35.111Z,27.30
2022-08-25T13:33:22.102Z,27.30
2022-08-25T13:36:16.433Z,27.30
2022-08-25T13:38:45.708Z,27.30
2022-08-25T13:41:29.384Z,27.40
2022-08-25T13:44:01.006Z,27.40
2022-08-25T13:46:30.648Z,27.40
2022-08-25T13:49:05.654Z,27.50
2022-08-25T13:51:33.506Z,27.50
2022-08-25T13:54:03.146Z,27.50
2022-08-25T13:56:41.871Z,27.60
2022-08-25T13:59:23.164Z,27.60
2022-08-25T14:01:51.117Z,27.70
2022-08-25T14:04:33.555Z,27.70
2022-08-25T14:07:12.808Z,27.70
2022-08-25T14:09:47.183Z,27.70
2022-08-25T14:12:39.965Z,27.80
2022-08-25T14:15:33.941Z,27.90
2022-08-25T14:18:05.851Z,27.90
2022-08-25T14:20:34.885Z,28.00
2022-08-25T14:23:18.744Z,28.00
2022-08-25T14:25:47.289Z,28.10
2022-08-25T14:28:20.438Z,28.10
2022-08-25T14:31:09.450Z,28.10
2022-08-25T14:33:57.095Z,28.00
2022-08-25T14:36:25.178Z,27.90
2022-08-25T14:38:55.197Z,27.80
2022-08-25T14:41:23.943Z,27.80
2022-08-25T14:43:51.474Z,27.80
2022-08-25T14:46:24.909Z,27.80
2022-08-25T14:48:55.520Z,27.70
2022-08-25T14:51:23.817Z,27.70
2022-08-25T14:53:57.672Z,27.80
2022-08-25T14:56:25.327Z,27.70
2022-08-25T14:58:56.847Z,27.80
2022-08-25T15:01:29.201Z,27.80
2022-08-25T15:04:08.525Z,27.80
2022-08-25T15:06:36.253Z,27.80
2022-08-25T15:09:08.265Z,27.80
2022-08-25T15:11:36.519Z,27.80
2022-08-25T15:14:06.239Z,27.70
2022-08-25T15:16:46.388Z,27.60
2022-08-25T15:19:15.955Z,27.50
2022-08-25T15:21:44.537Z,27.30
2022-08-25T15:24:12.613Z,27.20
2022-08-25T15:26:58.760Z,27.20
2022-08-25T15:29:29.992Z,27.20
2022-08-25T15:31:58.377Z,27.20
2022-08-25T15:34:25.895Z,27.10
2022-08-25T15:36:53.582Z,27.00
2022-08-25T15:39:21.275Z,27.00
2022-08-25T15:41:52.262Z,27.00
2022-08-25T15:44:19.802Z,27.00
2022-08-25T15:46:50.159Z,26.90
2022-08-25T15:49:23.168Z,26.90
2022-08-25T15:51:54.603Z,26.90
2022-08-25T15:54:22.765Z,27.00
2022-08-25T15:56:50.353Z,27.10
2022-08-25T15:59:19.425Z,27.20
2022-08-25T16:01:53.309Z,27.30
2022-08-25T16:04:22.694Z,27.40
2022-08-25T16:06:51.859Z,27.50
2022-08-25T16:09:19.284Z,27.60
2022-08-25T16:11:56.827Z,27.60
2022-08-25T16:14:27.777Z,27.60
2022-08-25T16:16:58.392Z,27.60
2022-08-25T16:19:28.454Z,27.50
2022-08-25T16:21:56.008Z,27.50
2022-08-25T16:24:23.397Z,27.40
2022-08-25T16:26:51.742Z,27.30
2022-08-25T16:29:19.973Z,27.30
2022-08-25T16:31:53.261Z,27.20
2022-08-25T16:34:24.570Z,27.20
2022-08-25T16:36:53.141Z,27.10
2022-08-25T16:39:21.441Z,27.00
2022-08-25T16:41:52.226Z,26.90
2022-08-25T16:44:22.554Z,26.90
2022-08-25T16:46:54.016Z,26.80
2022-08-25T16:49:21.979Z,26.80
2022-08-25T16:51:57.109Z,26.80
2022-08-25T16:54:44.552Z,26.70
2022-08-25T16:57:12.163Z,26.70
2022-08-25T16:59:39.553Z,26.60
2022-08-25T17:02:07.082Z,26.60
2022-08-25T17:04:34.466Z,26.50
2022-08-25T17:07:02.160Z,26.40
2022-08-25T17:09:30.658Z,26.30
2022-08-25T17:11:58.067Z,26.30
2022-08-25T17:14:26.239Z,26.20
2022-08-25T17:16:55.149Z,26.10
2022-08-25T17:19:23.778Z,26.10
2022-08-25T17:21:52.178Z,26.00
2022-08-25T17:24:19.786Z,25.90
2022-08-25T17:26:49.917Z,25.80
2022-08-25T17:29:18.027Z,25.80
2022-08-25T17:31:48.317Z,25.70
2022-08-25T17:34:16.449Z,25.70
2022-08-25T17:36:44.231Z,25.60
2022-08-25T17:39:12.679Z,25.60
2022-08-25T17:41:42.987Z,25.50
2022-08-25T17:44:10.539Z,25.50
2022-08-25T17:46:40.799Z,25.40
2022-08-25T17:49:15.554Z,25.40
2022-08-25T17:51:43.014Z,25.30
2022-08-25T17:54:10.915Z,25.20
2022-08-25T17:56:38.432Z,25.20
2022-08-25T17:59:06.565Z,25.20
2022-08-25T18:01:35.276Z,25.20
2022-08-25T18:04:17.612Z,25.20
2022-08-25T18:06:46.227Z,25.10
2022-08-25T18:09:14.599Z,25.00
2022-08-25T18:11:42.376Z,25.00
2022-08-25T18:14:11.399Z,24.90
2022-08-25T18:16:38.894Z,24.80
2022-08-25T18:19:06.576Z,24.80
2022-08-25T18:21:37.059Z,24.70
2022-08-25T18:24:05.439Z,24.70
2022-08-25T18:26:33.001Z,24.60
2022-08-25T18:29:00.688Z,24.50
2022-08-25T18:31:28.171Z,24.50
2022-08-25T18:33:55.737Z,24.50
2022-08-25T18:36:23.194Z,24.50
2022-08-25T18:39:08.781Z,24.50
2022-08-25T18:41:38.221Z,24.40
2022-08-25T18:44:06.541Z,24.40
2022-08-25T18:46:34.495Z,24.40
2022-08-25T18:49:03.339Z,24.40
2022-08-25T18:51:32.918Z,24.40
2022-08-25T18:54:01.347Z,24.30
2022-08-25T18:56:29.128Z,24.40
2022-08-25T18:58:57.170Z,24.40
2022-08-25T19:01:24.745Z,24.30
2022-08-25T19:03:52.277Z,24.30
2022-08-25T19:06:20.745Z,24.30
2022-08-25T19:08:49.098Z,24.30
2022-08-25T19:11:22.229Z,24.30
2022-08-25T19:13:50.935Z,24.20
2022-08-25T19:16:30.119Z,24.20
2022-08-25T19:18:58.331Z,24.10
2022-08-25T19:21:25.887Z,24.10
2022-08-25T19:23:53.495Z,24.10
2022-08-25T19:26:21.387Z,24.10
2022-08-25T19:28:49.415Z,24.00
2022-08-25T19:31:20.770Z,24.00
2022-08-25T19:33:49.194Z,24.00
2022-08-25T19:36:16.912Z,24.00
2022-08-25T19:38:44.480Z,23.90
2022-08-25T19:41:14.516Z,23.90
2022-08-25T19:43:55.311Z,23.90
2022-08-25T19:46:33.353Z,23.90
2022-08-25T19:49:17.051Z,23.90
2022-08-25T19:51:50.535Z,23.80
2022-08-25T19:54:24.222Z,23.80
2022-08-25T19:56:54.755Z,23.80
2022-08-25T19:59:36.619Z,23.80
2022-08-25T20:02:21.472Z,23.80
2022-08-25T20:04:50.339Z,23.80
2022-08-25T20:07:23.706Z,23.70
2022-08-25T20:09:52.225Z,23.70
2022-08-25T20:12:20.430Z,23.70
2022-08-25T20:14:48.303Z,23.70
2022-08-25T20:17:24.879Z,23.70
2022-08-25T20:19:54.535Z,23.70
2022-08-25T20:22:26.284Z,23.70
2022-08-25T20:25:13.627Z,23.70
2022-08-25T20:27:43.524Z,23.70
2022-08-25T20:30:16.807Z,23.60
2022-08-25T20:32:45.485Z,23.60
2022-08-25T20:35:14.269Z,23.60
2022-08-25T20:37:42.510Z,23.60
2022-08-25T20:40:11.053Z,23.50
2022-08-25T20:42:40.582Z,23.60
2022-08-25T20:45:08.621Z,23.50
2022-08-25T20:47:36.403Z,23.50
2022-08-25T20:50:06.970Z,23.50
2022-08-25T20:52:34.868Z,23.40
2022-08-25T20:55:02.386Z,23.40
2022-08-25T20:57:30.315Z,23.30
2022-08-25T20:59:57.939Z,23.40
2022-08-25T21:02:25.682Z,23.30
2022-08-25T21:04:53.592Z,23.20
2022-08-25T21:07:21.370Z,23.20
2022-08-25T21:09:51.383Z,23.20
2022-08-25T21:12:19.359Z,23.20
2022-08-25T21:14:46.767Z,23.10
2022-08-25T21:17:14.654Z,23.10
2022-08-25T21:19:42.221Z,23.10
2022-08-25T21:22:10.827Z,23.10
2022-08-25T21:24:38.489Z,23.00
2022-08-25T21:27:06.224Z,23.00
2022-08-25T21:29:33.795Z,23.00
2022-08-25T21:32:01.583Z,23.00
2022-08-25T21:34:29.410Z,23.00
2022-08-25T21:36:58.159Z,22.90
2022-08-25T21:39:28.016Z,22.90
2022-08-25T21:41:58.496Z,22.90
2022-08-25T21:44:28.079Z,22.90
2022-08-25T21:46:56.161Z,22.80
2022-08-25T21:49:23.667Z,22.70
2022-08-25T21:52:00.073Z,22.70
2022-08-25T21:54:28.798Z,22.60
2022-08-25T21:56:59.444Z,22.60
2022-08-25T21:59:34.576Z,22.50
2022-08-25T22:02:04.177Z,22.40
2022-08-25T22:04:31.876Z,22.40
2022-08-25T22:06:59.410Z,22.40
2022-08-25T22:09:28.190Z,22.30
2022-08-25T22:11:56.009Z,22.30
2022-08-25T22:14:24.151Z,22.30
2022-08-25T22:16:54.587Z,22.30
2022-08-25T22:19:22.846Z,22.20
2022-08-25T22:21:51.092Z,22.20
2022-08-25T22:24:18.947Z,22.20
2022-08-25T22:26:47.646Z,22.10
2022-08-25T22:29:24.943Z,22.10
2022-08-25T22:32:02.049Z,22.10
2022-08-25T22:34:34.260Z,22.10
2022-08-25T22:37:02.417Z,22.00
2022-08-25T22:39:31.323Z,22.00
2022-08-25T22:41:59.830Z,22.00
2022-08-25T22:44:27.313Z,22.00
2022-08-25T22:46:55.104Z,21.90
2022-08-25T22:49:22.561Z,21.90
2022-08-25T22:51:49.999Z,21.90
2022-08-25T22:54:18.517Z,21.90
2022-08-25T22:56:45.944Z,21.90
2022-08-25T22:59:13.601Z,21.80
2022-08-25T23:01:42.658Z,21.80
2022-08-25T23:04:10.722Z,21.80
2022-08-25T23:06:38.835Z,21.80
2022-08-25T23:09:07.233Z,21.70
2022-08-25T23:11:35.868Z,21.70
2022-08-25T23:14:08.211Z,21.70
2022-08-25T23:16:36.003Z,21.70
2022-08-25T23:19:03.446Z,21.60
2022-08-25T23:21:51.554Z,21.60
2022-08-25T23:24:29.994Z,21.60
2022-08-25T23:27:02.004Z,21.60
2022-08-25T23:29:29.991Z,21.50
2022-08-25T23:31:57.652Z,21.50
2022-08-25T23:34:25.357Z,21.50
2022-08-25T23:36:52.816Z,21.50
2022-08-25T23:39:21.745Z,21.50
2022-08-25T23:41:50.149Z,21.50
2022-08-25T23:44:18.561Z,21.40
2022-08-25T23:46:47.111Z,21.40
2022-08-25T23:49:18.113Z,21.40
2022-08-25T23:51:47.442Z,21.30
2022-08-25T23:54:14.823Z,21.30
2022-08-25T23:56:52.181Z,21.30
2022-08-25T23:59:24.394Z,21.30
